Time;durP1;ratioP1;P1;durP2;ratioP2;P2;SDS_P1;SDS_P2;PMS_P1;PMS_P2;Temp;Humidity;BMP_temperature;BMP_pressure;BME280_temperature;BME280_humidity;BME280_pressure;Samples;Min_cycle;Max_cycle;Signal;HPM_P1;HPM_P2
2023/05/29 00:00:37;;;;;;;8.93;5.63;;;;;;;;;;6342106;27;20187;-56
2023/05/29 00:03:38;;;;;;;8.20;6.03;;;;;;;;;;6341098;27;20252;-56
2023/05/29 00:06:39;;;;;;;10.00;6.53;;;;;;;;;;6331205;27;20218;-57
2023/05/29 00:09:39;;;;;;;7.30;6.00;;;16.80;68.70;;;;;;6324545;28;20429;-56
2023/05/29 00:12:40;;;;;;;9.77;5.80;;;16.00;71.50;;;;;;6338730;27;20190;-57
2023/05/29 00:15:41;;;;;;;8.07;5.17;;;16.00;71.80;;;;;;6307552;27;20314;-57
2023/05/29 00:18:45;;;;;;;6.27;5.40;;;16.00;71.90;;;;;;6302701;27;20366;-56
2023/05/29 00:21:47;;;;;;;10.03;6.40;;;16.00;71.90;;;;;;6330233;27;20213;-54
2023/05/29 00:24:48;;;;;;;7.47;5.70;;;15.90;72.20;;;;;;6348723;27;20229;-55
2023/05/29 00:27:49;;;;;;;7.43;5.57;;;15.80;72.60;;;;;;6308445;27;20191;-55
2023/05/29 00:30:50;;;;;;;7.87;6.03;;;15.80;72.50;;;;;;6305321;27;20191;-56
2023/05/29 00:33:51;;;;;;;9.87;5.67;;;15.80;72.60;;;;;;6312686;28;20204;-56
2023/05/29 00:36:52;;;;;;;5.90;5.30;;;15.80;72.90;;;;;;6341766;27;20222;-56
2023/05/29 00:39:52;;;;;;;8.87;5.87;;;15.70;72.80;;;;;;6314452;27;20205;-56
2023/05/29 00:42:53;;;;;;;9.43;5.90;;;15.70;73.10;;;;;;6329947;27;20213;-55
2023/05/29 00:45:54;;;;;;;8.27;6.00;;;15.60;73.30;;;;;;6326365;27;20187;-55
2023/05/29 00:48:55;;;;;;;8.70;5.63;;;15.60;73.40;;;;;;6318992;27;20191;-56
2023/05/29 00:51:56;;;;;;;7.77;6.10;;;15.60;73.60;;;;;;6306948;28;20188;-56
2023/05/29 00:55:00;;;;;;;11.30;5.97;;;15.60;72.70;;;;;;6318668;27;20214;-56
2023/05/29 00:58:01;;;;;;;6.83;5.97;;;15.60;72.20;;;;;;6336268;27;20184;-56
2023/05/29 01:01:03;;;;;;;8.10;6.40;;;15.60;72.50;;;;;;6316684;27;20193;-55
2023/05/29 01:04:08;;;;;;;9.70;5.60;;;15.60;72.80;;;;;;6343031;28;20207;-56
2023/05/29 01:07:09;;;;;;;7.37;5.93;;;;;;;;;;6340660;27;20193;-56
2023/05/29 01:10:11;;;;;;;10.83;5.70;;;;;;;;;;6320199;28;20200;-56
2023/05/29 01:13:15;;;;;;;7.73;5.70;;;;;;;;;;6337499;27;20198;-56
2023/05/29 01:16:21;;;;;;;9.27;5.70;;;;;;;;;;6343927;27;20184;-57
2023/05/29 01:19:22;;;;;;;7.87;5.90;;;;;;;;;;6352915;27;20179;-56
2023/05/29 01:22:42;;;;;;;6.73;5.83;;;;;;;;;;6349183;27;20235;-55
2023/05/29 01:25:43;;;;;;;8.73;6.67;;;;;;;;;;6346935;27;20294;-56
2023/05/29 01:28:47;;;;;;;9.23;7.60;;;;;;;;;;6345332;27;20235;-55
2023/05/29 01:31:49;;;;;;;8.30;6.73;;;;;;;;;;6341573;28;20266;-56
2023/05/29 01:34:50;;;;;;;8.63;5.80;;;;;;;;;;6343274;27;20206;-55
2023/05/29 01:37:51;;;;;;;8.93;6.30;;;;;;;;;;6330047;27;20308;-56
2023/05/29 01:40:52;;;;;;;7.33;6.17;;;;;;;;;;6331076;27;20200;-55
2023/05/29 01:43:54;;;;;;;7.77;5.67;;;;;;;;;;6339008;27;20202;-53
2023/05/29 01:46:55;;;;;;;7.83;6.90;;;;;;;;;;6343228;27;20222;-54
2023/05/29 01:49:56;;;;;;;10.60;6.60;;;;;;;;;;6348873;27;20187;-56
2023/05/29 01:52:57;;;;;;;9.00;6.27;;;;;;;;;;6340019;27;20278;-57
2023/05/29 01:55:59;;;;;;;8.50;5.97;;;;;;;;;;6321381;28;20215;-56
2023/05/29 01:59:01;;;;;;;6.83;5.47;;;;;;;;;;6351390;27;20210;-57
2023/05/29 02:02:06;;;;;;;7.23;5.37;;;;;;;;;;6339283;27;20224;-53
2023/05/29 02:05:08;;;;;;;9.70;6.20;;;;;;;;;;6339449;27;20257;-57
2023/05/29 02:08:09;;;;;;;9.57;6.17;;;;;;;;;;6317388;28;20234;-57
2023/05/29 02:11:10;;;;;;;8.67;5.97;;;;;;;;;;6340263;27;20183;-55
2023/05/29 02:14:11;;;;;;;8.87;6.77;;;;;;;;;;6323785;27;20218;-56
2023/05/29 02:17:14;;;;;;;10.93;6.27;;;;;;;;;;6341112;27;20184;-57
2023/05/29 02:20:16;;;;;;;9.87;6.10;;;;;;;;;;6329827;27;20181;-53
2023/05/29 02:23:19;;;;;;;8.73;5.90;;;;;;;;;;6329112;27;20184;-56
2023/05/29 02:26:20;;;;;;;8.33;6.00;;;;;;;;;;6336778;27;20219;-57
2023/05/29 02:29:21;;;;;;;7.30;5.37;;;;;;;;;;6324722;28;20232;-55
2023/05/29 02:32:22;;;;;;;6.83;5.60;;;;;;;;;;6335843;28;20215;-57
2023/05/29 02:35:23;;;;;;;7.60;6.37;;;;;;;;;;6325492;28;20203;-57
2023/05/29 02:38:24;;;;;;;8.57;6.03;;;;;;;;;;6346603;28;20248;-56
2023/05/29 02:41:26;;;;;;;8.20;6.07;;;;;;;;;;6330034;28;20244;-53
2023/05/29 02:44:27;;;;;;;10.77;5.97;;;;;;;;;;6328908;28;20196;-54
2023/05/29 02:47:28;;;;;;;8.20;6.00;;;;;;;;;;6306669;28;20194;-57
2023/05/29 02:50:29;;;;;;;9.93;6.00;;;;;;;;;;6316528;28;20230;-55
2023/05/29 02:53:30;;;;;;;8.67;6.30;;;;;;;;;;6318588;28;20283;-56
2023/05/29 02:56:31;;;;;;;8.57;6.20;;;;;;;;;;6317641;28;20182;-57
2023/05/29 02:59:32;;;;;;;7.07;5.97;;;;;;;;;;6310427;28;20176;-55
2023/05/29 03:02:34;;;;;;;7.97;5.40;;;;;;;;;;6313254;28;20191;-57
2023/05/29 03:05:35;;;;;;;7.00;6.07;;;;;;;;;;6321505;28;20220;-53
2023/05/29 03:08:40;;;;;;;7.07;5.80;;;;;;;;;;6336788;28;20206;-57
2023/05/29 03:11:41;;;;;;;9.13;6.80;;;;;;;;;;6346189;28;20189;-56
2023/05/29 03:14:42;;;;;;;7.63;5.67;;;;;;;;;;6326724;28;20208;-56
2023/05/29 03:17:43;;;;;;;7.23;5.80;;;;;;;;;;6312890;28;20193;-57
2023/05/29 03:20:44;;;;;;;8.97;6.40;;;;;;;;;;6328355;28;20218;-54
2023/05/29 03:23:45;;;;;;;9.67;6.77;;;;;;;;;;6310157;28;20257;-57
2023/05/29 03:26:46;;;;;;;9.23;6.83;;;;;;;;;;6332704;28;20214;-56
2023/05/29 03:29:47;;;;;;;8.57;6.80;;;;;;;;;;6329701;28;20239;-58
2023/05/29 03:32:48;;;;;;;7.53;6.57;;;;;;;;;;6326425;27;20230;-57
2023/05/29 03:35:49;;;;;;;8.57;6.63;;;;;;;;;;6335742;27;20218;-56
2023/05/29 03:38:50;;;;;;;6.87;6.00;;;;;;;;;;6313278;28;20180;-55
2023/05/29 03:41:51;;;;;;;9.37;6.03;;;;;;;;;;6335739;28;20206;-57
2023/05/29 03:44:52;;;;;;;9.90;6.30;;;15.60;73.30;;;;;;6330038;28;20188;-57
2023/05/29 03:47:53;;;;;;;6.70;5.97;;;;;;;;;;6306174;28;20191;-54
2023/05/29 03:50:54;;;;;;;6.63;5.77;;;;;;;;;;6323932;27;20203;-56
2023/05/29 03:53:55;;;;;;;6.43;5.73;;;;;;;;;;6329706;27;20219;-54
2023/05/29 03:56:56;;;;;;;8.47;6.80;;;;;;;;;;6329512;27;20191;-57
2023/05/29 03:59:57;;;;;;;10.23;6.57;;;;;;;;;;6324672;28;20187;-55
2023/05/29 04:02:58;;;;;;;8.53;6.57;;;;;;;;;;6343290;27;20192;-56
2023/05/29 04:05:59;;;;;;;8.63;5.80;;;;;;;;;;6316746;28;20229;-56
2023/05/29 04:09:00;;;;;;;7.87;6.13;;;;;;;;;;6315623;28;20192;-57
2023/05/29 04:12:02;;;;;;;8.43;6.13;;;;;;;;;;6315363;28;20199;-57
2023/05/29 04:15:03;;;;;;;7.50;6.40;;;;;;;;;;6331875;28;20212;-55
2023/05/29 04:18:04;;;;;;;8.10;6.80;;;;;;;;;;6342386;27;20242;-56
2023/05/29 04:21:06;;;;;;;7.53;6.23;;;;;;;;;;6319372;28;20192;-57
2023/05/29 04:24:07;;;;;;;8.07;6.30;;;;;;;;;;6315111;28;20200;-54
2023/05/29 04:27:11;;;;;;;7.93;6.10;;;;;;;;;;6320155;28;20197;-57
2023/05/29 04:30:12;;;;;;;8.50;6.70;;;;;;;;;;6318694;28;20244;-55
2023/05/29 04:33:14;;;;;;;8.67;6.47;;;;;;;;;;6322156;28;20200;-57
2023/05/29 04:36:16;;;;;;;8.53;6.50;;;;;;;;;;6324391;27;20215;-56
2023/05/29 04:39:17;;;;;;;8.03;6.90;;;;;;;;;;6312107;28;20212;-57
2023/05/29 04:42:18;;;;;;;8.70;6.77;;;;;;;;;;6324052;28;20195;-57
2023/05/29 04:45:22;;;;;;;9.83;7.20;;;;;;;;;;6332065;28;20193;-56
2023/05/29 04:48:24;;;;;;;8.53;7.27;;;;;;;;;;6340102;28;20195;-54
2023/05/29 04:51:28;;;;;;;9.30;7.33;;;;;;;;;;6327077;27;20332;-56
2023/05/29 04:54:29;;;;;;;7.83;6.50;;;;;;;;;;6321455;28;20217;-55
2023/05/29 04:57:30;;;;;;;9.40;6.97;;;;;;;;;;6310341;27;20201;-57
2023/05/29 05:00:31;;;;;;;9.53;7.47;;;;;;;;;;6316453;27;20192;-55
2023/05/29 05:03:33;;;;;;;11.03;7.57;;;;;;;;;;6331826;28;20214;-57
2023/05/29 05:06:34;;;;;;;9.77;7.10;;;;;;;;;;6318969;28;20211;-59
2023/05/29 05:09:35;;;;;;;9.33;6.90;;;;;;;;;;6323338;28;20181;-56
2023/05/29 05:12:36;;;;;;;9.60;7.13;;;;;;;;;;6333914;28;20195;-58
2023/05/29 05:15:37;;;;;;;11.43;6.70;;;;;;;;;;6320504;28;20219;-61
2023/05/29 05:18:39;;;;;;;9.43;7.27;;;;;;;;;;6326767;28;20195;-59
2023/05/29 05:21:40;;;;;;;8.97;7.53;;;;;;;;;;6343671;27;20200;-58
2023/05/29 05:24:41;;;;;;;9.03;6.90;;;;;;;;;;6331921;28;20195;-58
2023/05/29 05:27:42;;;;;;;9.60;6.93;;;;;;;;;;6345679;27;20247;-53
2023/05/29 05:30:43;;;;;;;7.13;6.40;;;;;;;;;;6310129;28;20232;-59
2023/05/29 05:33:44;;;;;;;9.33;7.10;;;;;;;;;;6322318;28;20220;-61
2023/05/29 05:36:45;;;;;;;10.03;7.30;;;;;;;;;;6318065;28;20211;-61
2023/05/29 05:39:46;;;;;;;9.80;7.23;;;;;;;;;;6319807;28;20210;-59
2023/05/29 05:42:49;;;;;;;10.33;7.23;;;;;;;;;;6333556;28;20204;-60
2023/05/29 05:45:50;;;;;;;7.17;6.43;;;;;;;;;;6324301;27;20204;-60
2023/05/29 05:48:51;;;;;;;9.73;7.13;;;;;;;;;;6324018;28;20192;-60
2023/05/29 05:51:52;;;;;;;8.97;7.13;;;;;;;;;;6327544;27;20189;-58
2023/05/29 05:54:53;;;;;;;10.67;7.30;;;;;;;;;;6308139;28;20270;-56
2023/05/29 05:57:55;;;;;;;7.57;6.77;;;;;;;;;;6309395;28;20197;-50
2023/05/29 06:00:57;;;;;;;11.07;8.23;;;;;;;;;;6328656;28;20297;-54
2023/05/29 06:03:58;;;;;;;7.83;6.90;;;;;;;;;;6334618;28;20188;-54
2023/05/29 06:06:59;;;;;;;10.30;7.90;;;;;;;;;;6348326;28;20222;-57
2023/05/29 06:10:00;;;;;;;8.07;7.07;;;;;;;;;;6326236;28;20223;-56
2023/05/29 06:13:01;;;;;;;8.33;7.20;;;;;;;;;;6320347;28;20195;-58
2023/05/29 06:16:02;;;;;;;11.67;7.80;;;15.80;79.00;;;;;;6326322;28;20343;-58
2023/05/29 06:19:04;;;;;;;8.80;6.60;;;24.00;50.00;;;;;;6306362;28;20284;-58
2023/05/29 06:22:05;;;;;;;9.13;7.30;;;15.80;77.40;;;;;;6310477;28;20184;-56
2023/05/29 06:25:06;;;;;;;8.50;6.77;;;15.90;75.00;;;;;;6323645;28;20253;-59
2023/05/29 06:28:07;;;;;;;9.97;7.30;;;16.00;74.80;;;;;;6331765;28;20192;-57
2023/05/29 06:31:08;;;;;;;8.23;6.60;;;16.10;74.10;;;;;;6312614;28;20196;-59
2023/05/29 06:34:08;;;;;;;7.37;6.50;;;16.10;74.00;;;;;;6320564;28;20214;-59
2023/05/29 06:37:09;;;;;;;9.27;6.80;;;16.20;73.90;;;;;;6333760;27;20184;-58
2023/05/29 06:40:11;;;;;;;9.50;6.93;;;16.20;74.00;;;;;;6311645;28;20195;-62
2023/05/29 06:43:11;;;;;;;10.27;7.20;;;16.20;74.10;;;;;;6330853;28;20189;-60
2023/05/29 06:46:12;;;;;;;8.57;6.67;;;16.30;73.50;;;;;;6304936;27;20248;-63
2023/05/29 06:49:13;;;;;;;10.83;7.17;;;16.40;73.20;;;;;;6328428;28;20191;-62
2023/05/29 06:52:13;;;;;;;8.97;8.07;;;16.50;72.50;;;;;;6311750;27;20746;-62
2023/05/29 06:55:14;;;;;;;8.73;6.97;;;16.70;72.30;;;;;;6312502;28;20215;-61
2023/05/29 06:58:15;;;;;;;8.33;6.63;;;16.70;71.90;;;;;;6334977;28;20187;-63
2023/05/29 07:01:18;;;;;;;10.03;7.57;;;16.80;71.80;;;;;;6307536;28;20275;-64
2023/05/29 07:04:19;;;;;;;8.10;7.30;;;16.80;71.40;;;;;;6328854;27;20201;-59
2023/05/29 07:07:19;;;;;;;8.07;6.37;;;16.90;70.90;;;;;;6331546;27;20195;-60
2023/05/29 07:10:20;;;;;;;7.30;6.37;;;17.00;70.10;;;;;;6322680;27;20306;-60
2023/05/29 07:13:21;;;;;;;9.60;6.93;;;17.00;69.20;;;;;;6318730;27;20187;-61
2023/05/29 07:16:22;;;;;;;7.33;6.63;;;17.10;70.10;;;;;;6338373;27;20214;-61
2023/05/29 07:19:22;;;;;;;7.90;6.73;;;17.20;69.60;;;;;;6341337;27;20235;-60
2023/05/29 07:22:23;;;;;;;6.97;6.23;;;17.20;69.10;;;;;;6339443;27;20187;-61
2023/05/29 07:25:24;;;;;;;7.90;6.27;;;17.30;69.00;;;;;;6335106;28;20194;-61
2023/05/29 07:28:25;;;;;;;9.73;7.03;;;17.40;69.10;;;;;;6339628;27;20225;-60
2023/05/29 07:31:25;;;;;;;7.37;6.37;;;17.40;69.10;;;;;;6328892;28;20283;-60
2023/05/29 07:34:26;;;;;;;7.33;6.53;;;17.50;68.00;;;;;;6318499;28;20216;-59
2023/05/29 07:37:27;;;;;;;9.10;6.17;;;17.70;67.10;;;;;;6320520;27;20208;-59
2023/05/29 07:40:27;;;;;;;8.30;5.77;;;17.80;65.00;;;;;;6321585;27;20226;-59
2023/05/29 07:43:28;;;;;;;6.77;5.43;;;17.90;63.20;;;;;;6338495;27;20184;-60
2023/05/29 07:46:29;;;;;;;8.07;5.23;;;18.00;62.90;;;;;;6307930;27;20189;-60
2023/05/29 07:49:30;;;;;;;5.83;5.10;;;18.00;63.60;;;;;;6313802;27;20240;-60
2023/05/29 07:52:30;;;;;;;6.30;4.90;;;18.00;61.00;;;;;;6326161;27;20220;-60
2023/05/29 07:55:31;;;;;;;7.37;4.83;;;18.00;60.80;;;;;;6322455;27;20215;-61
2023/05/29 07:58:31;;;;;;;6.00;5.40;;;18.00;61.60;;;;;;6321913;27;20188;-61
2023/05/29 08:01:33;;;;;;;8.37;5.87;;;18.10;62.50;;;;;;6306343;27;20188;-60
2023/05/29 08:04:35;;;;;;;7.87;5.70;;;18.10;61.90;;;;;;6307938;27;20203;-60
2023/05/29 08:07:36;;;;;;;6.17;5.47;;;18.20;62.10;;;;;;6343349;27;20184;-60
2023/05/29 08:10:37;;;;;;;7.30;5.63;;;18.30;61.70;;;;;;6323585;27;20223;-61
2023/05/29 08:13:38;;;;;;;6.17;5.50;;;18.30;61.40;;;;;;6323305;28;20202;-61
2023/05/29 08:16:39;;;;;;;6.87;5.63;;;18.40;62.30;;;;;;6320676;27;20190;-62
2023/05/29 08:19:39;;;;;;;5.40;4.90;;;18.50;62.70;;;;;;6336544;27;20256;-63
2023/05/29 08:22:40;;;;;;;6.27;5.27;;;18.50;62.70;;;;;;6324096;27;20200;-62
2023/05/29 08:25:40;;;;;;;7.87;5.87;;;18.60;62.60;;;;;;6308157;27;20194;-61
2023/05/29 08:28:42;;;;;;;9.80;5.50;;;18.60;62.50;;;;;;6313832;27;20227;-62
2023/05/29 08:31:42;;;;;;;5.83;5.17;;;18.70;62.80;;;;;;6343420;27;20197;-63
2023/05/29 08:34:45;;;;;;;6.80;5.50;;;18.80;62.80;;;;;;6300574;28;20216;-62
2023/05/29 08:37:46;;;;;;;7.80;5.73;;;18.90;62.20;;;;;;6342385;27;20261;-61
2023/05/29 08:40:48;;;;;;;7.30;5.63;;;19.00;63.10;;;;;;6308482;27;20184;-61
2023/05/29 08:43:50;;;;;;;6.00;5.33;;;19.10;61.90;;;;;;6341467;27;20188;-61
2023/05/29 08:46:55;;;;;;;8.53;5.50;;;19.20;60.10;;;;;;6344691;27;20187;-61
2023/05/29 08:49:58;;;;;;;7.23;5.33;;;19.30;59.90;;;;;;6357131;27;20171;-61
2023/05/29 08:52:59;;;;;;;6.10;5.47;;;19.40;58.10;;;;;;6341269;27;20233;-61
2023/05/29 08:56:01;;;;;;;7.10;5.70;;;19.50;60.00;;;;;;6329713;27;20214;-61
2023/05/29 08:59:02;;;;;;;10.80;5.43;;;19.60;56.80;;;;;;6343212;27;20183;-61
2023/05/29 09:02:04;;;;;;;7.30;5.43;;;19.80;55.00;;;;;;6339000;27;20183;-61
2023/05/29 09:05:06;;;;;;;6.90;6.00;;;19.90;56.60;;;;;;6330141;27;20194;-61
2023/05/29 09:08:09;;;;;;;11.23;5.90;;;19.90;58.20;;;;;;6310321;28;20270;-61
2023/05/29 09:11:10;;;;;;;6.97;5.60;;;19.90;57.30;;;;;;6328791;28;20223;-62
2023/05/29 09:14:40;;;;;;;7.97;5.87;;;19.90;56.70;;;;;;6307577;27;20219;-61
2023/05/29 09:17:41;;;;;;;6.30;5.00;;;19.90;57.70;;;;;;6333657;27;20184;-61
2023/05/29 09:20:41;;;;;;;8.10;5.47;;;20.00;60.30;;;;;;6325630;28;20191;-61
2023/05/29 09:23:42;;;;;;;7.97;5.47;;;20.00;60.80;;;;;;6336379;27;20178;-62
2023/05/29 09:26:51;;;;;;;7.30;5.57;;;20.10;55.50;;;;;;6324051;27;20189;-61
2023/05/29 09:29:51;;;;;;;6.93;5.03;;;20.30;53.00;;;;;;6353250;27;20226;-61
2023/05/29 09:32:53;;;;;;;9.30;6.00;;;20.50;53.30;;;;;;6324739;27;20182;-61
2023/05/29 09:35:54;;;;;;;8.83;6.00;;;20.50;55.10;;;;;;6332292;28;20256;-61
2023/05/29 09:38:55;;;;;;;9.43;5.77;;;20.60;55.70;;;;;;6323697;27;20184;-61
2023/05/29 09:41:55;;;;;;;6.83;5.50;;;20.70;55.90;;;;;;6309985;28;20274;-61
2023/05/29 09:44:56;;;;;;;6.70;5.23;;;20.90;53.70;;;;;;6313446;28;20278;-61
2023/05/29 09:47:58;;;;;;;7.00;5.80;;;21.10;54.40;;;;;;6316708;27;20186;-61
2023/05/29 09:51:02;;;;;;;8.50;6.07;;;21.10;55.20;;;;;;6328538;27;20184;-61
2023/05/29 09:54:16;;;;;;;8.93;5.73;;;21.30;53.50;;;;;;6316056;28;20208;-61
2023/05/29 09:57:17;;;;;;;8.43;6.00;;;21.30;54.80;;;;;;6335597;27;20216;-61
2023/05/29 10:00:19;;;;;;;12.17;6.07;;;21.50;50.70;;;;;;6355312;27;20189;-61
2023/05/29 10:03:21;;;;;;;9.10;6.10;;;21.40;51.70;;;;;;6336598;27;20273;-61
2023/05/29 10:06:22;;;;;;;9.50;5.80;;;21.30;52.50;;;;;;6311478;27;20282;-62
2023/05/29 10:09:26;;;;;;;6.47;5.37;;;21.30;53.60;;;;;;6298120;28;20191;-62
2023/05/29 10:12:28;;;;;;;5.30;4.80;;;21.20;54.00;;;;;;6327921;27;20199;-62
2023/05/29 10:15:32;;;;;;;7.50;5.47;;;21.30;54.30;;;;;;6346105;27;20207;-62
2023/05/29 10:18:43;;;;;;;7.60;5.70;;;21.40;51.90;;;;;;6337738;27;20178;-62
2023/05/29 10:21:44;;;;;;;8.17;5.60;;;21.50;50.30;;;;;;6345738;27;20202;-62
2023/05/29 10:24:47;;;;;;;6.90;5.50;;;21.60;53.30;;;;;;6330217;27;20194;-62
2023/05/29 10:27:49;;;;;;;7.40;5.93;;;21.70;55.10;;;;;;6342129;27;20211;-61
2023/05/29 10:30:55;;;;;;;8.20;5.97;;;21.80;53.40;;;;;;6337630;28;20227;-62
2023/05/29 10:34:04;;;;;;;8.10;6.40;;;21.90;55.30;;;;;;6354361;27;20188;-62
2023/05/29 10:37:29;;;;;;;7.80;6.07;;;22.00;52.80;;;;;;6361759;27;20441;-62
2023/05/29 10:40:30;;;;;;;7.10;6.40;;;22.20;50.30;;;;;;6353389;27;20189;-62
2023/05/29 10:43:32;;;;;;;8.23;6.37;;;22.30;51.20;;;;;;6329789;27;20187;-61
2023/05/29 10:46:42;;;;;;;6.43;5.83;;;22.50;51.10;;;;;;6333764;27;20282;-62
2023/05/29 10:49:51;;;;;;;6.70;6.00;;;22.50;50.60;;;;;;6345994;27;20184;-62
2023/05/29 10:52:51;;;;;;;8.57;6.10;;;22.50;52.80;;;;;;6324037;27;20198;-62
2023/05/29 10:55:53;;;;;;;6.40;5.80;;;22.60;53.10;;;;;;6338203;27;20207;-62
2023/05/29 10:58:55;;;;;;;6.23;5.20;;;22.80;53.50;;;;;;6321388;27;20182;-62
2023/05/29 11:01:57;;;;;;;11.27;6.10;;;23.00;53.50;;;;;;6331645;27;20206;-62
2023/05/29 11:05:05;;;;;;;8.00;6.57;;;23.20;52.40;;;;;;6349491;27;20202;-62
2023/05/29 11:08:06;;;;;;;7.83;6.40;;;23.40;52.30;;;;;;6335024;27;20248;-62
2023/05/29 11:11:10;;;;;;;8.90;6.03;;;23.50;52.10;;;;;;6325418;27;20187;-62
2023/05/29 11:14:11;;;;;;;10.17;6.10;;;23.70;49.70;;;;;;6340847;27;20211;-62
2023/05/29 11:17:53;;;;;;;7.87;6.60;;;24.00;50.20;;;;;;6309879;27;20183;-61
2023/05/29 11:21:01;;;;;;;9.73;6.00;;;24.00;46.80;;;;;;6350635;27;20194;-61
2023/05/29 11:24:04;;;;;;;8.53;5.87;;;24.00;48.70;;;;;;6353115;27;20191;-61
2023/05/29 11:27:07;;;;;;;7.97;6.50;;;23.90;48.00;;;;;;6360239;27;20190;-61
2023/05/29 11:30:08;;;;;;;7.87;5.90;;;23.60;49.20;;;;;;6330304;27;20254;-61
2023/05/29 11:33:20;;;;;;;8.53;6.30;;;23.40;49.60;;;;;;6317008;27;20771;-61
2023/05/29 11:36:22;;;;;;;7.53;5.90;;;23.20;50.30;;;;;;6339797;28;20295;-61
2023/05/29 11:39:22;;;;;;;6.43;5.47;;;23.10;51.50;;;;;;6345154;27;20179;-61
2023/05/29 11:42:23;;;;;;;9.60;6.07;;;23.00;49.20;;;;;;6320549;27;20188;-61
2023/05/29 11:45:25;;;;;;;6.73;6.03;;;23.10;46.20;;;;;;6318247;27;20186;-61
2023/05/29 11:48:26;;;;;;;9.43;7.00;;;23.20;46.50;;;;;;6319407;27;20191;-61
2023/05/29 11:51:27;;;;;;;7.97;5.87;;;23.80;45.20;;;;;;6321040;28;20192;-61
2023/05/29 11:54:28;;;;;;;6.77;5.80;;;24.20;44.50;;;;;;6324368;27;20207;-61
2023/05/29 11:57:29;;;;;;;6.47;5.77;;;24.20;46.70;;;;;;6304110;27;20188;-61
2023/05/29 12:00:35;;;;;;;6.13;5.53;;;24.70;46.90;;;;;;6312404;28;20191;-61
2023/05/29 12:03:43;;;;;;;7.10;5.77;;;25.20;45.50;;;;;;6344032;27;20191;-62
2023/05/29 12:06:44;;;;;;;6.70;6.07;;;25.20;45.20;;;;;;6350123;27;20182;-62
2023/05/29 12:09:45;;;;;;;7.63;6.13;;;24.00;50.00;;;;;;6304118;28;20346;-62
2023/05/29 12:12:57;;;;;;;7.07;6.23;;;26.70;43.40;;;;;;6329291;28;20184;-62
2023/05/29 12:16:03;;;;;;;8.13;6.53;;;27.90;38.30;;;;;;6350156;27;20239;-62
2023/05/29 12:19:04;;;;;;;7.30;5.97;;;29.00;36.30;;;;;;6358378;27;20217;-62
2023/05/29 12:22:05;;;;;;;6.57;5.70;;;29.50;36.90;;;;;;6323635;27;20258;-62
2023/05/29 12:25:21;;;;;;;6.93;6.20;;;29.20;36.70;;;;;;6310535;27;20193;-62
2023/05/29 12:28:22;;;;;;;6.83;5.60;;;28.80;38.30;;;;;;6330658;27;20269;-62
2023/05/29 12:31:30;;;;;;;7.63;5.93;;;29.40;38.20;;;;;;6318100;27;20280;-62
2023/05/29 12:34:36;;;;;;;6.63;5.97;;;30.70;36.30;;;;;;6324553;27;20231;-62
2023/05/29 12:37:45;;;;;;;6.03;5.43;;;31.40;34.90;;;;;;6322904;27;20187;-62
2023/05/29 12:40:49;;;;;;;6.33;5.73;;;30.90;36.90;;;;;;6331129;27;20280;-62
2023/05/29 12:43:52;;;;;;;7.03;5.40;;;30.10;37.30;;;;;;6349380;27;20192;-61
2023/05/29 12:46:57;;;;;;;7.23;6.53;;;30.10;38.00;;;;;;6329217;27;20199;-62
2023/05/29 12:49:57;;;;;;;6.60;6.00;;;31.50;34.30;;;;;;6347820;27;20184;-62
2023/05/29 12:53:09;;;;;;;6.53;5.83;;;32.80;31.70;;;;;;6315570;27;20187;-62
2023/05/29 12:56:10;;;;;;;5.43;5.03;;;33.40;33.20;;;;;;6345192;27;20245;-62
2023/05/29 12:59:11;;;;;;;6.87;5.93;;;;;;;;;;6341703;27;20297;-62
2023/05/29 13:02:12;;;;;;;6.30;5.68;;;;;;;;;;6346522;27;20191;-63
2023/05/29 13:05:13;;;;;;;6.38;5.80;;;36.90;28.10;;;;;;6327946;27;20183;-62
2023/05/29 13:08:14;;;;;;;6.95;5.80;;;36.70;28.30;;;;;;6326503;28;20240;-61
2023/05/29 13:11:15;;;;;;;6.45;5.22;;;36.90;28.50;;;;;;6326705;27;20201;-60
2023/05/29 13:14:16;;;;;;;6.75;5.80;;;;;;;;;;6315114;27;20206;-60
2023/05/29 13:17:17;;;;;;;5.90;5.40;;;37.20;26.00;;;;;;6321947;28;20183;-61
2023/05/29 13:20:18;;;;;;;15.13;4.93;;;37.50;27.80;;;;;;6331110;27;20179;-59
2023/05/29 13:23:19;;;;;;;5.85;5.35;;;38.00;29.60;;;;;;6323728;27;20233;-60
2023/05/29 13:26:21;;;;;;;6.35;5.75;;;37.50;30.30;;;;;;6315671;27;20190;-60
2023/05/29 13:29:22;;;;;;;5.93;5.43;;;35.80;28.30;;;;;;6318414;27;20267;-59
2023/05/29 13:32:23;;;;;;;7.77;5.97;;;34.20;31.20;;;;;;6314814;27;20242;-60
2023/05/29 13:35:23;;;;;;;6.40;5.80;;;32.80;32.70;;;;;;6311635;27;20209;-59
2023/05/29 13:38:24;;;;;;;6.00;5.50;;;31.80;35.00;;;;;;6308992;27;20186;-59
2023/05/29 13:41:25;;;;;;;6.70;6.07;;;;;;;;;;6316291;27;20327;-59
2023/05/29 13:44:26;;;;;;;6.10;4.93;;;31.10;36.80;;;;;;6326211;27;20196;-60
2023/05/29 13:47:28;;;;;;;6.07;5.40;;;31.60;36.20;;;;;;6355275;27;20186;-60
2023/05/29 13:50:29;;;;;;;5.73;5.23;;;32.00;33.60;;;;;;6340516;27;20196;-62
2023/05/29 13:53:29;;;;;;;6.20;5.67;;;24.00;50.00;;;;;;6309599;27;20248;-61
2023/05/29 13:56:30;;;;;;;6.77;6.13;;;32.20;34.30;;;;;;6320964;27;20207;-61
2023/05/29 13:59:32;;;;;;;7.30;5.70;;;32.10;31.20;;;;;;6349315;27;20205;-61
2023/05/29 14:02:32;;;;;;;6.03;5.53;;;32.00;32.50;;;;;;6348248;27;20194;-61
2023/05/29 14:05:33;;;;;;;6.27;5.77;;;32.30;32.00;;;;;;6322402;27;20239;-62
2023/05/29 14:08:33;;;;;;;7.00;6.40;;;32.20;31.00;;;;;;6352271;27;20201;-62
2023/05/29 14:11:36;;;;;;;6.83;6.23;;;32.00;29.00;;;;;;6350197;27;20183;-62
2023/05/29 14:14:38;;;;;;;6.27;5.67;;;31.80;32.10;;;;;;6314518;27;20219;-62
2023/05/29 14:17:39;;;;;;;6.13;5.50;;;31.40;33.50;;;;;;6311418;27;20240;-62
2023/05/29 14:20:39;;;;;;;6.87;5.90;;;31.40;34.10;;;;;;6305362;28;20183;-63
2023/05/29 14:23:40;;;;;;;5.70;5.20;;;31.60;35.30;;;;;;6321620;28;20198;-63
2023/05/29 14:26:42;;;;;;;6.47;5.43;;;;;;;;;;6311294;27;20219;-63
2023/05/29 14:29:45;;;;;;;5.97;5.37;;;31.20;34.00;;;;;;6339929;28;20288;-62
2023/05/29 14:32:46;;;;;;;9.07;6.40;;;30.70;38.20;;;;;;6314367;27;20193;-63
2023/05/29 14:35:47;;;;;;;12.80;6.10;;;30.50;35.00;;;;;;6316762;28;20214;-63
2023/05/29 14:38:49;;;;;;;6.70;5.27;;;30.50;38.20;;;;;;6303417;28;20179;-62
2023/05/29 14:41:50;;;;;;;7.90;5.80;;;30.20;38.10;;;;;;6315569;27;20183;-62
2023/05/29 14:44:50;;;;;;;9.77;5.97;;;30.00;34.90;;;;;;6308264;28;20190;-62
2023/05/29 14:47:51;;;;;;;7.03;6.00;;;29.90;38.10;;;;;;6311545;27;20278;-62
2023/05/29 14:50:51;;;;;;;6.40;5.70;;;29.50;38.00;;;;;;6330488;28;20206;-63
2023/05/29 14:53:52;;;;;;;6.60;5.93;;;29.40;38.00;;;;;;6314144;28;20225;-62
2023/05/29 14:56:53;;;;;;;7.60;6.40;;;29.30;39.10;;;;;;6305164;27;20240;-61
2023/05/29 14:59:54;;;;;;;7.27;6.07;;;;;;;;;;6303046;27;20187;-62
2023/05/29 15:02:57;;;;;;;6.03;5.43;;;28.70;40.80;;;;;;6317906;28;20274;-62
2023/05/29 15:05:57;;;;;;;7.40;6.07;;;28.60;41.50;;;;;;6309715;27;20199;-61
2023/05/29 15:09:00;;;;;;;8.30;5.93;;;28.50;37.90;;;;;;6317800;28;20182;-61
2023/05/29 15:12:01;;;;;;;7.53;5.73;;;28.30;39.70;;;;;;6316823;27;20192;-62
2023/05/29 15:15:03;;;;;;;6.80;5.80;;;28.10;40.60;;;;;;6314102;28;20207;-60
2023/05/29 15:18:04;;;;;;;6.37;5.27;;;28.00;39.50;;;;;;6342357;27;20187;-62
2023/05/29 15:21:05;;;;;;;7.77;5.97;;;28.00;37.60;;;;;;6330355;27;20210;-62
2023/05/29 15:24:06;;;;;;;8.87;6.40;;;27.90;37.20;;;;;;6312151;27;20192;-62
2023/05/29 15:27:07;;;;;;;5.90;5.27;;;27.70;37.30;;;;;;6305117;28;20188;-63
2023/05/29 15:30:14;;;;;;;6.90;5.67;;;27.40;37.60;;;;;;6327739;28;20237;-63
2023/05/29 15:33:15;;;;;;;5.90;5.40;;;27.20;37.60;;;;;;6346854;27;20180;-62
2023/05/29 15:36:16;;;;;;;7.80;5.50;;;27.00;38.80;;;;;;6349745;27;20232;-63
2023/05/29 15:39:16;;;;;;;7.80;5.17;;;26.80;39.80;;;;;;6325306;27;20185;-62
2023/05/29 15:42:17;;;;;;;6.03;5.43;;;26.80;40.20;;;;;;6326158;27;20190;-62
2023/05/29 15:45:19;;;;;;;5.60;5.10;;;26.70;39.50;;;;;;6316037;27;20249;-62
2023/05/29 15:48:20;;;;;;;6.33;5.17;;;26.50;38.80;;;;;;6305755;27;20183;-62
2023/05/29 15:51:21;;;;;;;5.93;5.33;;;26.30;39.60;;;;;;6325071;27;20187;-63
2023/05/29 15:54:21;;;;;;;5.70;5.10;;;26.00;39.40;;;;;;6315360;27;20227;-62
2023/05/29 15:57:22;;;;;;;5.87;5.27;;;26.00;41.20;;;;;;6316188;27;20180;-63
2023/05/29 16:00:23;;;;;;;7.33;5.47;;;25.90;41.10;;;;;;6318414;27;20195;-62
2023/05/29 16:03:23;;;;;;;5.63;5.13;;;25.90;40.30;;;;;;6329936;27;20179;-61
2023/05/29 16:06:24;;;;;;;5.77;5.27;;;25.80;40.70;;;;;;6324922;27;20260;-62
2023/05/29 16:09:26;;;;;;;6.13;5.53;;;25.90;41.60;;;;;;6328437;27;20212;-62
2023/05/29 16:12:28;;;;;;;5.43;4.93;;;25.90;41.80;;;;;;6353433;27;20183;-60
2023/05/29 16:15:29;;;;;;;5.97;5.27;;;25.90;40.90;;;;;;6314076;27;20214;-62
2023/05/29 16:18:30;;;;;;;6.47;5.23;;;;;;;;;;6308455;27;20183;-62
2023/05/29 16:21:32;;;;;;;6.23;5.20;;;25.90;41.60;;;;;;6333344;27;20207;-60
2023/05/29 16:24:33;;;;;;;6.23;5.23;;;25.60;40.40;;;;;;6306775;27;20246;-59
2023/05/29 16:27:34;;;;;;;5.77;5.17;;;25.50;41.10;;;;;;6344870;27;20205;-59
2023/05/29 16:30:34;;;;;;;5.23;4.73;;;24.00;50.00;;;;;;6351464;27;20223;-59